Time;durP1;ratioP1;P1;durP2;ratioP2;P2;SDS_P1;SDS_P2;PMS_P1;PMS_P2;Temp;Humidity;BMP_temperature;BMP_pressure;BME280_temperature;BME280_humidity;BME280_pressure;Samples;Min_cycle;Max_cycle;Signal;HPM_P1;HPM_P2
2022/07/12 00:04:05;;;;;;;7.53;5.70;;;26.80;46.30;;;;;;4692760;57;21044;-31
2022/07/12 00:09:05;;;;;;;6.62;5.80;;;26.80;46.40;;;;;;4737553;57;21048;-32
2022/07/12 00:14:06;;;;;;;6.55;5.62;;;26.70;46.10;;;;;;4583827;57;21495;-31
2022/07/12 00:19:08;;;;;;;6.10;5.50;;;26.80;46.50;;;;;;4791536;57;21021;-33
2022/07/12 00:24:09;;;;;;;6.53;5.90;;;26.80;46.40;;;;;;4849882;57;21653;-29
2022/07/12 00:29:10;;;;;;;5.50;4.90;;;26.80;46.30;;;;;;4560880;59;21152;-32
2022/07/12 00:34:11;;;;;;;6.55;5.57;;;26.80;46.40;;;;;;4593207;57;21491;-31
2022/07/12 00:39:12;;;;;;;5.82;5.28;;;26.70;46.50;;;;;;4614945;57;21483;-30
2022/07/12 00:44:13;;;;;;;5.57;5.03;;;26.80;46.30;;;;;;4563298;57;21040;-30
2022/07/12 00:49:15;;;;;;;5.57;5.00;;;26.80;46.40;;;;;;4991177;57;21506;-26
2022/07/12 00:54:16;;;;;;;6.05;5.03;;;26.80;46.50;;;;;;5001840;57;21510;-31
2022/07/12 00:59:17;;;;;;;5.50;4.97;;;26.80;46.30;;;;;;5007967;57;21017;-31
2022/07/12 01:04:18;;;;;;;5.35;4.85;;;26.80;46.40;;;;;;4652036;57;21507;-27
2022/07/12 01:09:19;;;;;;;5.53;4.82;;;26.70;46.30;;;;;;4588088;57;21566;-32
2022/07/12 01:14:20;;;;;;;8.60;5.03;;;26.80;46.40;;;;;;4580627;57;21041;-32
2022/07/12 01:19:22;;;;;;;6.10;5.05;;;26.70;46.50;;;;;;4825822;57;21086;-32
2022/07/12 01:24:23;;;;;;;5.57;4.70;;;26.70;46.50;;;;;;4680568;57;21048;-32
2022/07/12 01:29:24;;;;;;;5.12;4.62;;;26.70;46.50;;;;;;4656425;57;21048;-29
2022/07/12 01:34:25;;;;;;;5.07;4.47;;;26.70;46.50;;;;;;4612815;57;21080;-29
2022/07/12 01:39:29;;;;;;;4.80;4.30;;;26.70;46.50;;;;;;5008345;57;21028;-29
2022/07/12 01:44:30;;;;;;;5.10;4.45;;;26.70;46.60;;;;;;4562677;57;21092;-30
2022/07/12 01:49:31;;;;;;;4.95;4.45;;;26.70;46.50;;;;;;4578890;57;21563;-26
2022/07/12 01:54:33;;;;;;;5.18;4.50;;;26.70;46.70;;;;;;4841119;57;21519;-32
2022/07/12 01:59:35;;;;;;;5.18;4.68;;;26.70;46.70;;;;;;4857663;57;21137;-29
2022/07/12 02:04:36;;;;;;;5.72;4.32;;;26.70;46.70;;;;;;4830606;57;21487;-30
2022/07/12 02:09:37;;;;;;;5.12;4.00;;;26.70;46.70;;;;;;4703000;57;21013;-30
2022/07/12 02:14:38;;;;;;;5.40;4.25;;;26.70;46.60;;;;;;4784112;57;21141;-30
2022/07/12 02:19:39;;;;;;;4.90;4.45;;;26.70;46.60;;;;;;4596855;57;21559;-30
2022/07/12 02:24:40;;;;;;;4.87;4.37;;;26.70;46.80;;;;;;4698009;57;21628;-30
2022/07/12 02:29:42;;;;;;;4.32;3.92;;;26.70;46.70;;;;;;4775848;57;21076;-30
2022/07/12 02:34:42;;;;;;;5.50;4.03;;;26.70;46.60;;;;;;4569619;57;21513;-31
2022/07/12 02:39:43;;;;;;;6.07;4.28;;;26.70;46.60;;;;;;4561926;61;21029;-31
2022/07/12 02:44:44;;;;;;;4.32;3.92;;;26.70;46.80;;;;;;4633755;57;21029;-29
2022/07/12 02:49:45;;;;;;;4.70;3.90;;;26.70;46.80;;;;;;4561091;57;21052;-34
2022/07/12 02:54:45;;;;;;;4.20;3.80;;;26.70;46.70;;;;;;4899370;57;21077;-31
2022/07/12 02:59:46;;;;;;;4.10;3.70;;;26.70;46.70;;;;;;4664700;57;21025;-29
2022/07/12 03:04:47;;;;;;;4.22;3.60;;;26.70;46.80;;;;;;4807820;57;21100;-30
2022/07/12 03:09:48;;;;;;;4.07;3.53;;;26.70;46.80;;;;;;4632706;57;21037;-29
2022/07/12 03:14:49;;;;;;;3.95;3.55;;;26.70;46.70;;;;;;4590244;57;21097;-30
2022/07/12 03:19:49;;;;;;;4.28;3.85;;;26.70;46.60;;;;;;4587461;57;21073;-33
2022/07/12 03:24:51;;;;;;;3.78;3.47;;;26.70;46.70;;;;;;4937103;57;21080;-31
2022/07/12 03:29:53;;;;;;;3.92;3.53;;;26.70;46.70;;;;;;4633606;57;21494;-32
2022/07/12 03:34:53;;;;;;;4.65;3.47;;;26.60;46.70;;;;;;4887852;57;21100;-29
2022/07/12 03:39:54;;;;;;;3.97;3.58;;;26.60;46.60;;;;;;4612533;57;21101;-31
2022/07/12 03:44:55;;;;;;;3.95;3.37;;;26.60;46.60;;;;;;4653156;57;21036;-26
2022/07/12 03:49:56;;;;;;;4.55;3.58;;;26.60;46.60;;;;;;4674998;57;21530;-30
2022/07/12 03:54:57;;;;;;;5.05;3.75;;;26.60;46.50;;;;;;4628943;57;21036;-29
2022/07/12 03:59:58;;;;;;;4.00;3.40;;;26.60;46.70;;;;;;4597626;57;21028;-34
2022/07/12 04:04:59;;;;;;;5.07;3.70;;;26.60;46.50;;;;;;4662013;57;21152;-28
2022/07/12 04:10:00;;;;;;;3.83;3.25;;;26.60;46.60;;;;;;4624273;57;21049;-32
2022/07/12 04:15:02;;;;;;;3.95;3.60;;;26.60;47.10;;;;;;4919720;57;21542;-33
2022/07/12 04:20:04;;;;;;;3.90;3.50;;;26.60;46.50;;;;;;4596637;57;21061;-33
2022/07/12 04:25:08;;;;;;;3.92;3.45;;;26.60;46.50;;;;;;4826827;57;21168;-33
2022/07/12 04:30:09;;;;;;;4.32;3.78;;;26.60;46.60;;;;;;4700240;57;21080;-32
2022/07/12 04:35:10;;;;;;;4.15;3.40;;;26.60;46.40;;;;;;4803070;57;21144;-30
2022/07/12 04:40:12;;;;;;;3.75;3.37;;;26.60;46.40;;;;;;4735434;57;21148;-31
2022/07/12 04:45:12;;;;;;;3.80;3.40;;;26.60;46.40;;;;;;5007984;57;21467;-31
2022/07/12 04:50:13;;;;;;;4.78;3.30;;;26.60;46.20;;;;;;4589274;57;21064;-30
2022/07/12 04:55:14;;;;;;;3.78;3.20;;;26.60;46.30;;;;;;4633310;57;21025;-33
2022/07/12 05:00:15;;;;;;;4.20;3.80;;;26.60;46.30;;;;;;4683382;57;21217;-30
2022/07/12 05:05:16;;;;;;;4.12;3.35;;;26.60;46.30;;;;;;4593554;57;21025;-32
2022/07/12 05:10:17;;;;;;;3.75;3.15;;;26.60;46.30;;;;;;4702732;57;21090;-33
2022/07/12 05:15:18;;;;;;;4.68;3.40;;;26.60;46.30;;;;;;4614559;57;21571;-31
2022/07/12 05:20:19;;;;;;;4.28;3.00;;;26.60;46.20;;;;;;4630947;57;21494;-31
2022/07/12 05:25:20;;;;;;;4.10;3.25;;;26.50;46.20;;;;;;4561083;61;21120;-30
2022/07/12 05:30:21;;;;;;;4.47;3.80;;;26.50;46.20;;;;;;4665303;57;21042;-29
2022/07/12 05:35:22;;;;;;;4.72;3.65;;;26.50;46.10;;;;;;4606791;57;21595;-29
2022/07/12 05:40:23;;;;;;;4.20;3.80;;;26.50;46.00;;;;;;4660138;57;21056;-30
2022/07/12 05:45:24;;;;;;;5.40;3.50;;;26.50;46.10;;;;;;4561262;61;21008;-30
2022/07/12 05:50:25;;;;;;;4.65;3.97;;;26.50;45.90;;;;;;4765344;57;21088;-28
2022/07/12 05:55:26;;;;;;;5.60;3.90;;;26.50;46.20;;;;;;4571199;57;21581;-30
2022/07/12 06:00:26;;;;;;;5.60;3.90;;;26.50;46.00;;;;;;4585352;57;21020;-33
2022/07/12 06:05:27;;;;;;;4.93;3.67;;;26.50;45.90;;;;;;4561470;61;21029;-29
2022/07/12 06:10:28;;;;;;;6.03;3.80;;;26.50;45.90;;;;;;4636597;57;21116;-29
2022/07/12 06:15:29;;;;;;;5.18;4.00;;;26.50;45.90;;;;;;4561802;58;21052;-28
2022/07/12 06:20:30;;;;;;;4.80;3.85;;;26.50;45.90;;;;;;4758947;57;21040;-29
2022/07/12 06:25:31;;;;;;;5.50;4.07;;;26.50;45.90;;;;;;4759481;57;21185;-29
2022/07/12 06:30:32;;;;;;;6.80;4.10;;;26.50;45.90;;;;;;4770589;57;21078;-29
2022/07/12 06:35:34;;;;;;;6.00;4.65;;;26.50;45.90;;;;;;4561645;61;21032;-33
2022/07/12 06:40:34;;;;;;;5.62;4.43;;;26.50;45.90;;;;;;4561470;61;21518;-28
2022/07/12 06:45:35;;;;;;;5.22;4.55;;;26.50;45.90;;;;;;4561355;61;21036;-28
2022/07/12 06:50:36;;;;;;;8.10;4.90;;;26.50;45.90;;;;;;4690079;57;21052;-31
2022/07/12 06:55:37;;;;;;;7.97;4.90;;;26.50;45.80;;;;;;4578703;57;21047;-29
2022/07/12 07:00:38;;;;;;;9.07;5.30;;;26.50;45.70;;;;;;4696987;57;21129;-29
2022/07/12 07:05:39;;;;;;;6.18;5.32;;;26.50;45.80;;;;;;4596431;57;21098;-33
2022/07/12 07:10:40;;;;;;;9.85;5.22;;;26.40;45.80;;;;;;4561582;58;21045;-29
2022/07/12 07:15:40;;;;;;;6.65;5.12;;;26.50;45.80;;;;;;4566899;57;21077;-30
2022/07/12 07:20:41;;;;;;;8.38;5.60;;;26.50;45.70;;;;;;4561262;61;21101;-31
2022/07/12 07:25:46;;;;;;;10.18;6.75;;;26.50;45.70;;;;;;4634064;57;103272;-31
2022/07/12 07:30:53;;;;;;;14.38;7.60;;;26.50;46.10;;;;;;4562937;61;21501;-29
2022/07/12 07:35:53;;;;;;;17.08;8.70;;;26.50;45.40;;;;;;4625168;57;21123;-27
2022/07/12 07:40:54;;;;;;;15.23;9.60;;;26.60;45.30;;;;;;4563268;61;21478;-31
2022/07/12 07:45:56;;;;;;;16.95;10.70;;;26.60;45.20;;;;;;4603791;57;21079;-29
2022/07/12 07:50:57;;;;;;;16.50;10.52;;;26.60;45.20;;;;;;4574755;57;21083;-28
2022/07/12 07:55:58;;;;;;;18.20;10.77;;;26.60;45.80;;;;;;4564586;57;21055;-27
2022/07/12 08:00:59;;;;;;;17.85;11.23;;;26.70;46.10;;;;;;4562738;61;21557;-29
2022/07/12 08:06:00;;;;;;;19.92;11.45;;;26.70;45.70;;;;;;4596375;57;21032;-30
2022/07/12 08:11:01;;;;;;;17.25;11.75;;;26.70;45.30;;;;;;4604817;57;21556;-29
2022/07/12 08:16:02;;;;;;;20.23;12.32;;;26.70;45.30;;;;;;4668132;57;21137;-28
2022/07/12 08:21:03;;;;;;;25.02;12.93;;;26.70;45.30;;;;;;4563173;58;21027;-28
2022/07/12 08:26:03;;;;;;;20.00;12.63;;;26.70;45.20;;;;;;4677505;57;21552;-29
2022/07/12 08:31:04;;;;;;;23.20;12.63;;;26.70;45.00;;;;;;4663972;57;21031;-30
2022/07/12 08:36:06;;;;;;;18.52;12.90;;;26.70;45.00;;;;;;4588436;57;21027;-29
2022/07/12 08:41:09;;;;;;;16.75;12.27;;;26.80;45.00;;;;;;4562872;58;21541;-29
2022/07/12 08:46:11;;;;;;;21.92;13.02;;;26.80;44.80;;;;;;4655747;57;21589;-29
2022/07/12 08:51:17;;;;;;;21.10;13.00;;;26.80;44.80;;;;;;4757356;57;21035;-29
2022/07/12 08:56:41;;;;;;;20.75;13.32;;;26.80;44.60;;;;;;4599061;57;21000;-30
2022/07/12 09:01:50;;;;;;;19.58;12.50;;;26.80;44.60;;;;;;4652206;57;21024;-30
2022/07/12 09:06:51;;;;;;;19.17;12.63;;;26.80;44.60;;;;;;4594596;57;21031;-32
2022/07/12 09:11:52;;;;;;;21.40;12.93;;;26.90;44.30;;;;;;4562912;61;21039;-30
2022/07/12 09:17:02;;;;;;;18.20;13.55;;;26.80;44.20;;;;;;4621741;57;21072;-29
2022/07/12 09:22:05;;;;;;;21.75;14.95;;;26.80;43.70;;;;;;4569176;57;21505;-31
2022/07/12 09:27:06;;;;;;;26.45;15.75;;;26.80;43.60;;;;;;4586802;57;21545;-29
2022/07/12 09:37:27;;;;;;;22.50;17.40;;;26.80;43.40;;;;;;4562866;57;21055;-30
2022/07/12 09:42:28;;;;;;;24.83;17.60;;;26.80;43.10;;;;;;4563532;61;21076;-26
2022/07/12 09:47:30;;;;;;;27.92;18.42;;;26.80;44.30;;;;;;4610918;57;21071;-31
2022/07/12 09:52:32;;;;;;;32.38;20.80;;;26.90;44.10;;;;;;4568963;57;21075;-28
2022/07/12 09:57:37;;;;;;;36.03;22.08;;;26.90;44.00;;;;;;4594319;57;21012;-31
2022/07/12 10:02:39;;;;;;;36.45;22.48;;;26.90;44.00;;;;;;4715416;57;21075;-29
2022/07/12 10:07:40;;;;;;;34.88;22.30;;;26.90;43.80;;;;;;4562181;58;21064;-29
2022/07/12 10:12:41;;;;;;;35.38;23.67;;;26.90;43.90;;;;;;4610099;57;21079;-28
2022/07/12 10:17:52;;;;;;;42.70;24.37;;;26.90;43.70;;;;;;4697627;57;21208;-27
2022/07/12 10:26:29;;;;;;;38.00;23.15;;;26.90;43.70;;;;;;4563188;61;21501;-27
2022/07/12 10:31:34;;;;;;;42.30;31.77;;;26.90;43.60;;;;;;4665036;57;21024;-28
2022/07/12 10:37:16;;;;;;;55.70;43.80;;;26.80;39.90;;;;;;4692784;57;21123;-27
2022/07/12 10:42:17;;;;;;;43.25;31.77;;;26.80;39.20;;;;;;5010274;57;21482;-28
2022/07/12 10:47:18;;;;;;;38.65;26.98;;;26.70;39.10;;;;;;4673774;57;21027;-30
2022/07/12 10:52:25;;;;;;;30.98;24.48;;;26.70;38.70;;;;;;4562864;61;21588;-31
2022/07/12 10:57:40;;;;;;;32.35;24.00;;;26.70;38.30;;;;;;4751331;57;21545;-27
2022/07/12 11:02:41;;;;;;;29.55;22.58;;;26.60;38.60;;;;;;4584248;57;21537;-28
2022/07/12 11:07:42;;;;;;;31.62;20.88;;;26.60;38.70;;;;;;4562590;61;21035;-29
2022/07/12 11:12:43;;;;;;;29.77;22.45;;;26.50;38.80;;;;;;4564865;57;21031;-28
2022/07/12 11:17:44;;;;;;;32.95;23.73;;;26.60;39.40;;;;;;4684308;57;21076;-25
2022/07/12 11:22:45;;;;;;;39.13;26.67;;;26.60;38.60;;;;;;4563064;61;21550;-28
2022/07/12 11:27:46;;;;;;;41.97;30.83;;;26.60;39.00;;;;;;4715164;57;21059;-32
2022/07/12 11:32:47;;;;;;;42.38;27.83;;;26.60;39.20;;;;;;4630967;57;21028;-28
2022/07/12 11:37:56;;;;;;;33.55;25.00;;;26.60;39.00;;;;;;4563463;57;21544;-26
2022/07/12 11:43:02;;;;;;;37.05;25.77;;;26.50;38.30;;;;;;4594545;57;21032;-29
2022/07/12 11:48:03;;;;;;;34.97;24.98;;;26.50;39.20;;;;;;4666534;57;21589;-31
2022/07/12 11:53:04;;;;;;;34.53;23.92;;;26.60;39.60;;;;;;4709127;57;21498;-30
2022/07/12 11:58:06;;;;;;;34.28;22.98;;;26.60;39.10;;;;;;4563068;61;21522;-31
2022/07/12 12:03:07;;;;;;;32.55;22.20;;;26.60;39.60;;;;;;4687069;57;21569;-29
2022/07/12 12:08:12;;;;;;;31.17;21.12;;;26.70;40.40;;;;;;4628834;57;21055;-27
2022/07/12 12:13:17;;;;;;;29.10;20.75;;;26.70;40.20;;;;;;4626676;57;21133;-28
2022/07/12 12:18:32;;;;;;;28.00;20.37;;;26.70;40.20;;;;;;4658891;57;21000;-31
2022/07/12 12:23:35;;;;;;;28.33;21.58;;;26.70;40.20;;;;;;4562901;61;21052;-30
2022/07/12 12:28:48;;;;;;;32.67;21.87;;;26.70;40.10;;;;;;4704985;57;21550;-28
2022/07/12 12:33:52;;;;;;;40.67;31.23;;;26.70;40.00;;;;;;4642106;57;21079;-29
2022/07/12 12:39:02;;;;;;;45.65;35.85;;;26.70;39.60;;;;;;4920481;57;21019;-29
2022/07/12 12:44:05;;;;;;;36.45;27.33;;;26.70;39.10;;;;;;4684367;57;21051;-26
2022/07/12 12:49:06;;;;;;;27.95;22.48;;;26.70;38.60;;;;;;4646761;57;21148;-29
2022/07/12 12:54:08;;;;;;;24.58;18.12;;;26.60;38.10;;;;;;4616264;57;21019;-31
2022/07/12 12:59:09;;;;;;;28.65;21.73;;;26.60;38.00;;;;;;4642248;57;21541;-26
2022/07/12 13:04:10;;;;;;;30.83;21.58;;;26.60;38.80;;;;;;4880335;57;21088;-29
2022/07/12 13:09:11;;;;;;;32.35;25.62;;;26.60;38.30;;;;;;4669722;57;21035;-26
2022/07/12 13:14:12;;;;;;;40.28;30.27;;;26.60;39.40;;;;;;4594730;57;21083;-27
2022/07/12 13:19:12;;;;;;;35.05;25.37;;;26.60;38.30;;;;;;4563853;61;21031;-29
2022/07/12 13:24:13;;;;;;;29.23;23.08;;;26.60;37.90;;;;;;4994370;57;21052;-24
2022/07/12 13:29:14;;;;;;;26.35;19.50;;;26.60;38.60;;;;;;4563081;61;21529;-26
2022/07/12 13:34:15;;;;;;;28.40;20.27;;;26.50;37.90;;;;;;4709375;57;21015;-29
2022/07/12 13:44:35;;;;;;;30.25;23.23;;;26.60;39.60;;;;;;4563656;57;21047;-30
2022/07/12 13:49:36;;;;;;;30.70;23.05;;;26.70;40.10;;;;;;4617598;57;21040;-32
2022/07/12 13:54:37;;;;;;;30.23;23.77;;;26.70;40.10;;;;;;4563781;61;21470;-31
2022/07/12 13:59:38;;;;;;;30.50;23.42;;;26.70;40.70;;;;;;4563664;61;21032;-30
2022/07/12 14:04:39;;;;;;;32.40;23.62;;;26.70;40.90;;;;;;4606821;57;21352;-29
2022/07/12 14:09:40;;;;;;;32.13;23.85;;;26.60;40.50;;;;;;4574954;57;21096;-30
2022/07/12 14:20:01;;;;;;;29.25;23.92;;;26.60;40.60;;;;;;4562302;57;21048;-31
2022/07/12 14:25:03;;;;;;;31.33;23.35;;;26.60;40.70;;;;;;4857898;57;21518;-33
2022/07/12 14:30:07;;;;;;;26.30;21.12;;;26.60;40.40;;;;;;4564554;57;21545;-32
2022/07/12 14:35:10;;;;;;;28.20;22.58;;;26.60;40.70;;;;;;4705103;57;21079;-32
2022/07/12 14:40:12;;;;;;;25.73;20.62;;;26.60;40.70;;;;;;4683946;57;21024;-31
2022/07/12 14:45:14;;;;;;;26.17;21.40;;;26.60;40.80;;;;;;4563186;61;21458;-30
2022/07/12 14:50:14;;;;;;;26.95;22.08;;;26.60;40.60;;;;;;4687060;57;21562;-30
2022/07/12 14:55:15;;;;;;;26.55;21.33;;;26.60;41.10;;;;;;4562991;58;21089;-33
2022/07/12 15:00:16;;;;;;;25.52;21.12;;;26.60;41.30;;;;;;4617785;57;21124;-29
2022/07/12 15:05:17;;;;;;;26.62;20.85;;;26.60;41.20;;;;;;4641785;57;21566;-30
2022/07/12 15:10:18;;;;;;;25.92;20.30;;;26.60;41.30;;;;;;4562278;61;21036;-31
2022/07/12 15:15:19;;;;;;;25.98;20.65;;;26.60;41.60;;;;;;4595317;57;21542;-26
2022/07/12 15:20:20;;;;;;;25.80;20.55;;;26.60;41.50;;;;;;4607746;57;21028;-32
2022/07/12 15:25:21;;;;;;;26.00;20.73;;;26.60;41.70;;;;;;4885712;57;21064;-33
2022/07/12 15:30:22;;;;;;;27.00;19.48;;;26.60;41.90;;;;;;4562667;61;21135;-31
2022/07/12 15:35:24;;;;;;;26.17;19.52;;;26.60;41.70;;;;;;4624787;57;21027;-29
2022/07/12 15:40:25;;;;;;;25.10;19.42;;;26.60;41.60;;;;;;4822957;57;21578;-29
2022/07/12 15:45:26;;;;;;;22.77;19.30;;;26.60;42.00;;;;;;4602470;57;21107;-30
2022/07/12 15:50:27;;;;;;;22.67;18.35;;;26.60;41.80;;;;;;4629867;57;21087;-24
2022/07/12 15:55:29;;;;;;;24.50;19.67;;;26.60;42.00;;;;;;4612261;57;21031;-29
2022/07/12 16:00:29;;;;;;;24.35;18.77;;;26.60;41.90;;;;;;4563201;61;21558;-30
2022/07/12 16:05:30;;;;;;;24.98;19.42;;;26.60;42.30;;;;;;4602443;57;21076;-33
2022/07/12 16:10:31;;;;;;;23.62;18.62;;;26.60;42.10;;;;;;4578653;57;21518;-30
2022/07/12 16:15:33;;;;;;;21.77;17.83;;;26.60;42.00;;;;;;4587433;57;21027;-30
2022/07/12 16:20:34;;;;;;;22.25;18.33;;;26.60;42.10;;;;;;4640753;57;21083;-32
2022/07/12 16:25:35;;;;;;;22.40;18.27;;;26.60;41.90;;;;;;4693040;57;21525;-30
2022/07/12 16:30:37;;;;;;;22.52;18.10;;;26.60;42.20;;;;;;4754161;57;21035;-31
2022/07/12 16:35:38;;;;;;;21.48;17.15;;;26.60;41.80;;;;;;4563380;61;21558;-33
2022/07/12 16:40:39;;;;;;;21.25;18.17;;;26.60;42.30;;;;;;4583274;57;21068;-33
2022/07/12 16:45:40;;;;;;;24.55;18.67;;;26.60;42.10;;;;;;4563002;61;21507;-33
2022/07/12 16:50:41;;;;;;;19.98;16.50;;;26.60;42.80;;;;;;4562032;61;21024;-34
2022/07/12 16:55:41;;;;;;;23.58;17.87;;;26.60;42.10;;;;;;4563526;57;22002;-33
2022/07/12 17:00:42;;;;;;;19.42;17.15;;;26.60;42.00;;;;;;4562899;61;21020;-32
2022/07/12 17:05:43;;;;;;;21.17;18.27;;;26.60;42.10;;;;;;4562875;57;21035;-30
2022/07/12 17:10:44;;;;;;;21.55;18.10;;;26.60;42.50;;;;;;4619739;57;21564;-30
2022/07/12 17:15:47;;;;;;;22.15;18.77;;;26.60;42.20;;;;;;4633280;57;21063;-30
2022/07/12 17:20:48;;;;;;;21.65;17.95;;;26.60;42.10;;;;;;4562810;61;21489;-34
2022/07/12 17:25:48;;;;;;;24.87;18.85;;;26.60;42.30;;;;;;4634945;57;21063;-26
2022/07/12 17:30:49;;;;;;;22.50;19.42;;;26.60;42.60;;;;;;4655626;57;21458;-33
2022/07/12 17:35:50;;;;;;;22.73;18.50;;;26.60;42.20;;;;;;4819123;57;21027;-31
2022/07/12 17:40:52;;;;;;;20.35;17.00;;;26.60;42.30;;;;;;4758451;57;21019;-33
2022/07/12 17:45:53;;;;;;;22.15;18.23;;;26.60;42.70;;;;;;4605678;57;21083;-34
2022/07/12 17:50:54;;;;;;;19.98;16.87;;;26.60;42.30;;;;;;4583998;57;21120;-30
2022/07/12 17:55:55;;;;;;;24.00;18.98;;;26.60;42.50;;;;;;4604691;57;21087;-32
2022/07/12 18:00:56;;;;;;;20.90;17.40;;;26.60;42.70;;;;;;4645904;57;20996;-31
2022/07/12 18:05:56;;;;;;;21.65;17.60;;;26.60;42.20;;;;;;4676004;57;21088;-31
2022/07/12 18:10:58;;;;;;;22.75;18.35;;;26.60;43.10;;;;;;4562985;61;21060;-34
2022/07/12 18:15:59;;;;;;;22.65;17.77;;;26.60;42.50;;;;;;4597778;57;21076;-31
2022/07/12 18:20:59;;;;;;;19.98;16.27;;;26.60;42.40;;;;;;4650512;57;21024;-35
2022/07/12 18:26:01;;;;;;;22.15;17.05;;;26.60;42.70;;;;;;4574808;57;21059;-30
2022/07/12 18:31:01;;;;;;;20.52;17.67;;;26.50;42.60;;;;;;4677111;57;21534;-29
2022/07/12 18:36:03;;;;;;;20.77;16.35;;;26.60;42.70;;;;;;4723191;57;21023;-30
2022/07/12 18:41:04;;;;;;;20.85;17.10;;;26.50;42.60;;;;;;4598233;57;21008;-33
2022/07/12 18:46:04;;;;;;;19.70;16.55;;;26.60;42.70;;;;;;4663834;57;21039;-31
2022/07/12 18:51:06;;;;;;;22.15;16.60;;;26.50;42.60;;;;;;4633041;57;21027;-31
2022/07/12 18:56:07;;;;;;;19.95;16.90;;;26.60;42.70;;;;;;4711162;57;21501;-28
2022/07/12 19:01:09;;;;;;;22.45;17.37;;;26.60;42.90;;;;;;4563026;61;20995;-32
2022/07/12 19:06:10;;;;;;;19.50;16.00;;;26.50;42.80;;;;;;4906993;57;21052;-35
2022/07/12 19:11:11;;;;;;;20.12;15.38;;;26.50;42.80;;;;;;4626199;57;21040;-32
2022/07/12 19:16:12;;;;;;;19.52;15.45;;;26.50;42.90;;;;;;4727203;57;21083;-33
2022/07/12 19:21:14;;;;;;;18.27;14.93;;;26.60;43.00;;;;;;4695791;57;21027;-32
2022/07/12 19:26:15;;;;;;;19.92;14.30;;;26.50;43.00;;;;;;4893698;57;21645;-36
2022/07/12 19:31:16;;;;;;;17.90;14.75;;;26.50;43.10;;;;;;4602505;57;21047;-34
2022/07/12 19:36:16;;;;;;;19.48;14.43;;;26.50;43.10;;;;;;4564391;57;21087;-32
2022/07/12 19:41:17;;;;;;;16.37;13.52;;;26.50;43.30;;;;;;4585212;57;21020;-33
2022/07/12 19:46:18;;;;;;;18.58;13.82;;;26.50;43.30;;;;;;4599632;57;21022;-33
2022/07/12 19:51:20;;;;;;;17.75;13.30;;;26.50;43.40;;;;;;4583140;57;21020;-30
2022/07/12 19:56:21;;;;;;;20.65;13.18;;;26.50;43.50;;;;;;4572484;57;21573;-33
2022/07/12 20:01:22;;;;;;;17.02;12.82;;;26.50;43.60;;;;;;4607987;57;21020;-29
2022/07/12 20:06:23;;;;;;;17.55;13.25;;;26.50;43.70;;;;;;4592792;57;21151;-30
2022/07/12 20:11:24;;;;;;;18.23;12.93;;;26.50;43.70;;;;;;4563226;61;21080;-30
2022/07/12 20:16:25;;;;;;;17.87;13.30;;;26.50;43.80;;;;;;4662471;57;21108;-30
2022/07/12 20:21:26;;;;;;;16.40;12.52;;;26.50;43.80;;;;;;4715867;57;21028;-33
2022/07/12 20:26:28;;;;;;;17.90;12.45;;;26.50;43.90;;;;;;4644270;57;21059;-33
2022/07/12 20:31:29;;;;;;;16.62;11.82;;;26.50;44.30;;;;;;4672253;57;21498;-33
2022/07/12 20:36:30;;;;;;;15.13;12.05;;;26.50;44.00;;;;;;4568944;57;21039;-31
2022/07/12 20:41:32;;;;;;;15.43;11.65;;;26.50;44.10;;;;;;4639293;57;21038;-32
2022/07/12 20:46:33;;;;;;;13.75;10.43;;;26.50;44.20;;;;;;4681563;57;21043;-31
2022/07/12 20:51:33;;;;;;;13.57;10.38;;;26.50;44.50;;;;;;4635477;57;21060;-32
2022/07/12 20:56:34;;;;;;;13.68;9.98;;;26.50;44.30;;;;;;4563370;58;21027;-35
2022/07/12 21:01:35;;;;;;;13.73;9.02;;;26.50;44.20;;;;;;4595005;57;21099;-34
2022/07/12 21:06:36;;;;;;;14.02;8.90;;;26.50;44.20;;;;;;4591594;57;21043;-33
2022/07/12 21:11:37;;;;;;;12.82;8.25;;;26.50;44.20;;;;;;4563234;61;21035;-32
2022/07/12 21:16:40;;;;;;;8.90;8.00;;;26.40;44.20;;;;;;4643173;57;21019;-34
2022/07/12 21:21:40;;;;;;;10.57;7.78;;;26.40;44.30;;;;;;4563389;61;21027;-34
2022/07/12 21:26:41;;;;;;;12.63;7.93;;;26.40;44.30;;;;;;4659857;57;21131;-33
2022/07/12 21:31:43;;;;;;;10.20;7.37;;;26.40;44.30;;;;;;4592990;57;21586;-31
2022/07/12 21:36:44;;;;;;;9.63;7.72;;;26.40;44.40;;;;;;4605571;57;21103;-31
2022/07/12 21:41:44;;;;;;;10.57;8.00;;;26.40;44.40;;;;;;4708659;57;21019;-31
2022/07/12 21:46:45;;;;;;;10.25;7.57;;;26.40;44.40;;;;;;4563398;58;21043;-32
2022/07/12 21:51:46;;;;;;;12.65;8.02;;;26.40;44.50;;;;;;4765773;57;21044;-31
2022/07/12 21:56:47;;;;;;;11.93;7.43;;;26.40;44.50;;;;;;4600715;57;21035;-29
2022/07/12 22:01:48;;;;;;;9.65;7.93;;;26.40;44.60;;;;;;4563447;61;21040;-33
2022/07/12 22:06:49;;;;;;;10.40;7.68;;;26.40;44.60;;;;;;4864402;57;21047;-35
2022/07/12 22:11:49;;;;;;;10.02;7.30;;;26.40;44.50;;;;;;4797756;57;21046;-35
2022/07/12 22:16:50;;;;;;;9.85;7.55;;;26.40;44.60;;;;;;4713048;57;21088;-34
2022/07/12 22:21:51;;;;;;;9.85;6.70;;;26.40;44.70;;;;;;4563651;57;21643;-33
2022/07/12 22:26:52;;;;;;;9.40;6.80;;;26.40;44.80;;;;;;4585456;57;21075;-32
2022/07/12 22:31:53;;;;;;;8.60;6.40;;;26.40;44.80;;;;;;4726305;57;21470;-33
2022/07/12 22:36:53;;;;;;;8.00;7.12;;;26.40;44.80;;;;;;4563128;61;21008;-32
2022/07/12 22:41:54;;;;;;;8.40;6.75;;;26.40;44.80;;;;;;4862316;57;21035;-30
2022/07/12 22:46:55;;;;;;;8.98;6.60;;;26.40;44.80;;;;;;4563157;61;21107;-31
2022/07/12 22:51:57;;;;;;;9.50;6.80;;;26.40;44.80;;;;;;4573468;57;21089;-30
2022/07/12 22:56:58;;;;;;;9.70;6.20;;;26.40;44.90;;;;;;4598862;57;21490;-30
2022/07/12 23:01:59;;;;;;;7.57;6.05;;;26.40;44.90;;;;;;4646874;57;21116;-32
2022/07/12 23:07:00;;;;;;;7.93;6.30;;;26.40;44.90;;;;;;4724741;57;21031;-28
2022/07/12 23:12:00;;;;;;;6.87;5.82;;;26.40;45.00;;;;;;4641419;57;21036;-30
2022/07/12 23:17:01;;;;;;;7.30;5.80;;;26.40;45.00;;;;;;4713213;57;21397;-32
2022/07/12 23:22:02;;;;;;;7.37;5.72;;;26.40;44.90;;;;;;4563060;61;21042;-33
2022/07/12 23:27:03;;;;;;;6.97;5.93;;;26.40;45.00;;;;;;4562944;61;21052;-32
2022/07/12 23:32:07;;;;;;;6.50;5.45;;;26.40;45.10;;;;;;4630812;57;21478;-30
2022/07/12 23:37:08;;;;;;;6.12;4.87;;;26.40;45.00;;;;;;4582929;57;21039;-32
2022/07/12 23:42:09;;;;;;;6.07;5.22;;;26.40;45.10;;;;;;4580324;57;21561;-31
2022/07/12 23:47:10;;;;;;;8.60;5.10;;;26.40;45.10;;;;;;4739385;57;21095;-33
2022/07/12 23:52:10;;;;;;;6.20;5.32;;;26.40;45.20;;;;;;4656173;57;21054;-34
2022/07/12 23:57:11;;;;;;;5.28;4.60;;;26.40;45.00;;;;;;4683698;57;21026;-30
